Search for airport 
image banner adimage banner adimage banner ad
image banner ad

5CL1 - Hart Ranch

Located in Santa Margarita, United States

ICAO - 5CL1, IATA -

Data provided by Airmate  

General information

Coordinates: N35°24'17" W120°31'30"
Elevation is 1380 feet MSL.
Magnetic variation is 15° East
View others Airports in California

Operational data

Special qualification required
Current time UTC:
Current local time:
Weather at : KSBP - San Luis County Rgnl ( 21 km )
METAR: KSBP 221256Z AUTO 15005KT 10SM OVC012 16/12 A2996 RMK AO2 SLP143 T01560122
TAF: KSBP 221136Z 2212/2312 VRB03KT P6SM OVC015 FM221900 21008KT P6SM SKC FM222200 29008KT P6SM SKC FM230600 VRB03KT P6SM OVC012 FM231000 VRB03KT P6SM OVC008
View NOTAMs / SUP AIP / TFR affecting this airport [VIEW]
Communications frequencies: [VIEW]

Runways:

RWY identifierQFULength (ft)Width (ft)SurfaceLDA (ft)
07180024GRAVEL
25180024GRAVEL

Airport contact information

Address: Santa Margarita United States

Satellite view of 5CL1